WetterOnline ( http://www.wetteronline.de )

Wetter aktuell Ronneby

Aktuelles Wetter: Ronneby (58m)

6-stündlich | Neueste Meldungen
Ortszeit Temperatur Wetter
Di, 19.02. 13:00 6.4° C bewölkt
Di, 19.02. 7:00 -0.5° C Nebel
Di, 19.02. 1:00 -0.6° C Nebel
Mo, 18.02. 19:00 2.6° C Nebel
Mo, 18.02. 13:00 4.3° C bedeckt
Mo, 18.02. 7:00 1.6° C Nebel (abnehmend)
Mo, 18.02. 1:00 -0.9° C Nebel
So, 17.02. 19:00 4.1° C leicht bewölkt
Ortszeit Temperatur Wetter
Di, 19.02. 14:20 6° C leichte Schauer
Di, 19.02. 14:00 6.1° C leichte Schauer
Di, 19.02. 13:50 6° C leichte Schauer
Di, 19.02. 13:20 6° C leichte Schauer
Di, 19.02. 13:00 6.4° C bewölkt
Di, 19.02. 12:50 6° C leichter Regen
Di, 19.02. 12:20 6° C bewölkt
Di, 19.02. 12:00 5.6° C bewölkt
Di, 19.02. 11:20 4° C bewölkt
Di, 19.02. 11:00 3.5° C bewölkt, nach Regen
Ortszeit Relative Feuchte Sichtweite
Di, 19.02. 13:00 98% 10 km
Di, 19.02. 7:00 100% 100 m
Di, 19.02. 1:00 100% <100 m
Mo, 18.02. 19:00 100% 100 m
Mo, 18.02. 13:00 100% 3.5 km
Mo, 18.02. 7:00 100% 0.2 km
Mo, 18.02. 1:00 100% 1.2 km
So, 17.02. 19:00 91% 45 km
Ortszeit Relative Feuchte Sichtweite
Di, 19.02. 14:20 93% >10 km
Di, 19.02. 14:00 93% 10 km
Di, 19.02. 13:50 93% >10 km
Di, 19.02. 13:20 93% >10 km
Di, 19.02. 13:00 98% 10 km
Di, 19.02. 12:50 100% >10 km
Di, 19.02. 12:20 100% >10 km
Di, 19.02. 12:00 100% 6 km
Di, 19.02. 11:20 100% 3.0 km
Di, 19.02. 11:00 100% 2.0 km
Ortszeit Niederschlagsmenge Niederschlagsart
Di, 19.02. 13:00 1 l/m2 in 6 Std. -
Di, 19.02. 7:00 0.0 l/m2 in 12 Std. Nebel
Di, 19.02. 1:00 0.0 l/m2 in 6 Std. -
Mo, 18.02. 19:00 0.0 l/m2 in 12 Std. -
Mo, 18.02. 13:00 0.0 l/m2 in 6 Std. Nebel
Mo, 18.02. 7:00 0.0 l/m2 in 12 Std. Nebel
Mo, 18.02. 1:00 0.0 l/m2 in 6 Std. -
So, 17.02. 19:00 0.0 l/m2 in 12 Std. -
Ortszeit Niederschlagsmenge Niederschlagsart
Di, 19.02. 14:20 keine Meldung -
Di, 19.02. 14:00 0.0 l/m2 in 1 Std. Regenschauer
Di, 19.02. 13:50 keine Meldung -
Di, 19.02. 13:20 keine Meldung -
Di, 19.02. 13:00 keine Meldung -
Di, 19.02. 12:50 keine Meldung -
Di, 19.02. 12:20 keine Meldung -
Di, 19.02. 12:00 0.0 l/m2 in 1 Std. Regen
Di, 19.02. 11:20 keine Meldung -
Di, 19.02. 11:00 0.2 l/m2 in 1 Std. Regen
Ortszeit Stärke Spitze Richtung
km/h Bft. km/h Grad Sektor
Di, 19.02. 13:00 14 3 - 230° SW
Di, 19.02. 7:00 4 1 - 140° SO
Di, 19.02. 1:00 4 1 - 110° O
Mo, 18.02. 19:00 4 1 - 170° S
Mo, 18.02. 13:00 14 3 - 180° S
Mo, 18.02. 7:00 7 2 - 140° SO
Mo, 18.02. 1:00 0 0 - - -
So, 17.02. 19:00 0 0 - - -
Ortszeit Stärke Spitze Richtung
km/h Bft. km/h Grad Sektor
Di, 19.02. 14:20 19 3 - 240° SW
Di, 19.02. 14:00 22 4 32 240° SW
Di, 19.02. 13:50 17 3 - 240° SW
Di, 19.02. 13:20 15 3 - 240° SW
Di, 19.02. 13:00 14 3 25 230° SW
Di, 19.02. 12:50 17 3 - 240° SW
Di, 19.02. 12:20 13 3 - 230° SW
Di, 19.02. 12:00 14 3 22 240° SW
Di, 19.02. 11:20 9 2 - 240° SW
Di, 19.02. 11:00 4 1 11 230° SW
Ortszeit Untergrenze Bedeckung Gattung
total tief tief mittel hoch
Di, 19.02. 13:00 270 m 7/8 7/8 St - -
Di, 19.02. 7:00 30 m 8/8 - St - -
Di, 19.02. 1:00 30 m 8/8 - - - -
Mo, 18.02. 19:00 30 m 8/8 8/8 - - -
Mo, 18.02. 13:00 90 m 8/8 8/8 St - -
Mo, 18.02. 7:00 30 m 8/8 - St - -
Mo, 18.02. 1:00 30 m 8/8 8/8 - - -
So, 17.02. 19:00 1500 m 2/8 1/8 - - -
Ortszeit Bedeckungsgrad in Achtel und Wolkenuntergrenze
Di, 19.02. 14:20 5-7(390m) 5-7(450m)
Di, 19.02. 14:00 4(360m) 7(450m)
Di, 19.02. 13:50 3-4(360m) 5-7(450m)
Di, 19.02. 13:20 1-2(270m) 5-7(450m)
Di, 19.02. 13:00 5(270m) 5(510m) 7(600m)
Di, 19.02. 12:50 5-7(270m)
Di, 19.02. 12:20 5-7(240m)
Di, 19.02. 12:00 7(210m)
Di, 19.02. 11:20 1-2(90m) 5-7(480m)
Di, 19.02. 11:00 7(90m)
Ortszeit Luftdruck NN (hPa) Tendenz (hPa in 3 Std.)
Di, 19.02. 13:00 1005 - 1,4
Di, 19.02. 7:00 1007 - 2,3
Di, 19.02. 1:00 1012 - 2,0
Mo, 18.02. 19:00 1015 - 1,1
Mo, 18.02. 13:00 1018 - 1,5
Mo, 18.02. 7:00 1020 - 1,3
Mo, 18.02. 1:00 1023 0,0
So, 17.02. 19:00 1023 + 0,5
Ortszeit Luftdruck NN (hPa) Tendenz (hPa in 3 Std.)
Di, 19.02. 14:20 1004 keine Meldung
Di, 19.02. 14:00 1005 - 1,4
Di, 19.02. 13:50 1004 keine Meldung
Di, 19.02. 13:20 1004 keine Meldung
Di, 19.02. 13:00 1005 - 1,4
Di, 19.02. 12:50 1005 keine Meldung
Di, 19.02. 12:20 1005 keine Meldung
Di, 19.02. 12:00 1006 - 0,7
Di, 19.02. 11:20 1005 keine Meldung
Di, 19.02. 11:00 1006 - 0,3
Ortszeit Schneehöhe (cm)
Di, 19.02. 13:00 -
Di, 19.02. 7:00 0
Di, 19.02. 1:00 -
Mo, 18.02. 19:00 -
Mo, 18.02. 13:00 -
Mo, 18.02. 7:00 -
Mo, 18.02. 1:00 -
So, 17.02. 19:00 -
Ortszeit Schneehöhe (cm)
Di, 19.02. 14:20 -
Di, 19.02. 14:00 -
Di, 19.02. 13:50 -
Di, 19.02. 13:20 -
Di, 19.02. 13:00 -
Di, 19.02. 12:50 -
Di, 19.02. 12:20 -
Di, 19.02. 12:00 -
Di, 19.02. 11:20 -
Di, 19.02. 11:00 -
Link zu dieser Seite / Seite empfehlen

Das Wetter in ...